sensor_id;sensor_type;location;lat;lon;timestamp;temperature;humidity
10644;DHT22;5370;50.132;8.626;2022-08-19T00:01:20;22.10;62.90
10644;DHT22;5370;50.132;8.626;2022-08-19T00:03:46;22.20;63.00
10644;DHT22;5370;50.132;8.626;2022-08-19T00:06:12;22.20;63.00
10644;DHT22;5370;50.132;8.626;2022-08-19T00:08:39;22.20;63.10
10644;DHT22;5370;50.132;8.626;2022-08-19T00:11:04;22.20;63.10
10644;DHT22;5370;50.132;8.626;2022-08-19T00:13:30;22.20;63.00
10644;DHT22;5370;50.132;8.626;2022-08-19T00:15:56;22.20;63.00
10644;DHT22;5370;50.132;8.626;2022-08-19T00:18:24;22.20;62.90
10644;DHT22;5370;50.132;8.626;2022-08-19T00:20:49;22.20;62.90
10644;DHT22;5370;50.132;8.626;2022-08-19T00:23:15;22.30;63.00
10644;DHT22;5370;50.132;8.626;2022-08-19T00:25:41;22.20;62.70
10644;DHT22;5370;50.132;8.626;2022-08-19T00:28:07;22.20;62.70
10644;DHT22;5370;50.132;8.626;2022-08-19T00:30:32;22.20;62.70
10644;DHT22;5370;50.132;8.626;2022-08-19T00:32:58;22.30;62.80
10644;DHT22;5370;50.132;8.626;2022-08-19T00:35:24;22.20;62.60
10644;DHT22;5370;50.132;8.626;2022-08-19T00:37:52;22.20;62.70
10644;DHT22;5370;50.132;8.626;2022-08-19T00:40:19;22.20;62.50
10644;DHT22;5370;50.132;8.626;2022-08-19T00:42:46;22.20;62.50
10644;DHT22;5370;50.132;8.626;2022-08-19T00:45:15;22.20;63.10
10644;DHT22;5370;50.132;8.626;2022-08-19T00:47:42;22.20;62.30
10644;DHT22;5370;50.132;8.626;2022-08-19T00:50:11;22.20;62.30
10644;DHT22;5370;50.132;8.626;2022-08-19T00:52:42;22.20;62.30
10644;DHT22;5370;50.132;8.626;2022-08-19T00:55:13;22.30;62.30
10644;DHT22;5370;50.132;8.626;2022-08-19T00:57:53;22.20;62.20
10644;DHT22;5370;50.132;8.626;2022-08-19T01:00:21;22.20;62.10
10644;DHT22;5370;50.132;8.626;2022-08-19T01:02:48;22.30;62.20
10644;DHT22;5370;50.132;8.626;2022-08-19T01:05:24;22.20;62.00
10644;DHT22;5370;50.132;8.626;2022-08-19T01:07:53;22.20;62.00
10644;DHT22;5370;50.132;8.626;2022-08-19T01:10:21;22.20;61.90
10644;DHT22;5370;50.132;8.626;2022-08-19T01:12:49;22.20;62.10
10644;DHT22;5370;50.132;8.626;2022-08-19T01:15:20;22.20;61.80
10644;DHT22;5370;50.132;8.626;2022-08-19T01:17:46;22.20;61.70
10644;DHT22;5370;50.132;8.626;2022-08-19T01:20:16;22.20;61.70
10644;DHT22;5370;50.132;8.626;2022-08-19T01:22:43;22.20;61.70
10644;DHT22;5370;50.132;8.626;2022-08-19T01:25:09;22.30;61.70
10644;DHT22;5370;50.132;8.626;2022-08-19T01:27:44;22.20;61.60
10644;DHT22;5370;50.132;8.626;2022-08-19T01:30:13;22.20;61.60
10644;DHT22;5370;50.132;8.626;2022-08-19T01:32:39;22.20;61.50
10644;DHT22;5370;50.132;8.626;2022-08-19T01:35:05;22.20;61.40
10644;DHT22;5370;50.132;8.626;2022-08-19T01:37:45;22.30;61.50
10644;DHT22;5370;50.132;8.626;2022-08-19T01:40:12;22.30;61.40
10644;DHT22;5370;50.132;8.626;2022-08-19T01:42:37;22.30;61.40
10644;DHT22;5370;50.132;8.626;2022-08-19T01:45:04;22.30;61.30
10644;DHT22;5370;50.132;8.626;2022-08-19T01:47:30;22.30;61.30
10644;DHT22;5370;50.132;8.626;2022-08-19T01:49:55;22.20;61.20
10644;DHT22;5370;50.132;8.626;2022-08-19T01:52:23;22.20;61.20
10644;DHT22;5370;50.132;8.626;2022-08-19T01:54:48;22.20;61.20
10644;DHT22;5370;50.132;8.626;2022-08-19T01:57:14;22.20;61.20
10644;DHT22;5370;50.132;8.626;2022-08-19T01:59:41;22.20;61.30
10644;DHT22;5370;50.132;8.626;2022-08-19T02:02:07;22.20;61.40
10644;DHT22;5370;50.132;8.626;2022-08-19T02:04:34;22.20;61.50
10644;DHT22;5370;50.132;8.626;2022-08-19T02:06:59;22.20;61.60
10644;DHT22;5370;50.132;8.626;2022-08-19T02:09:25;22.10;61.50
10644;DHT22;5370;50.132;8.626;2022-08-19T02:11:51;22.10;61.70
10644;DHT22;5370;50.132;8.626;2022-08-19T02:14:16;22.10;61.80
10644;DHT22;5370;50.132;8.626;2022-08-19T02:16:42;22.10;61.80
10644;DHT22;5370;50.132;8.626;2022-08-19T02:19:07;22.10;62.00
10644;DHT22;5370;50.132;8.626;2022-08-19T02:21:33;22.20;62.10
10644;DHT22;5370;50.132;8.626;2022-08-19T02:23:59;22.10;62.10
10644;DHT22;5370;50.132;8.626;2022-08-19T02:26:25;22.10;62.20
10644;DHT22;5370;50.132;8.626;2022-08-19T02:28:54;22.10;62.30
10644;DHT22;5370;50.132;8.626;2022-08-19T02:31:22;22.10;62.40
10644;DHT22;5370;50.132;8.626;2022-08-19T02:33:48;22.10;62.40
10644;DHT22;5370;50.132;8.626;2022-08-19T02:36:16;22.10;62.50
10644;DHT22;5370;50.132;8.626;2022-08-19T02:38:43;22.10;62.60
10644;DHT22;5370;50.132;8.626;2022-08-19T02:41:15;22.10;62.60
10644;DHT22;5370;50.132;8.626;2022-08-19T02:43:41;22.10;62.60
10644;DHT22;5370;50.132;8.626;2022-08-19T02:46:24;22.10;62.70
10644;DHT22;5370;50.132;8.626;2022-08-19T02:48:51;22.10;62.90
10644;DHT22;5370;50.132;8.626;2022-08-19T02:51:23;22.10;63.10
10644;DHT22;5370;50.132;8.626;2022-08-19T02:53:49;22.00;63.10
10644;DHT22;5370;50.132;8.626;2022-08-19T02:56:15;22.00;63.20
10644;DHT22;5370;50.132;8.626;2022-08-19T02:58:41;22.00;63.50
10644;DHT22;5370;50.132;8.626;2022-08-19T03:01:08;21.90;63.60
10644;DHT22;5370;50.132;8.626;2022-08-19T03:03:35;21.90;63.80
10644;DHT22;5370;50.132;8.626;2022-08-19T03:06:13;21.90;64.00
10644;DHT22;5370;50.132;8.626;2022-08-19T03:08:41;21.80;64.20
10644;DHT22;5370;50.132;8.626;2022-08-19T03:11:13;21.80;64.40
10644;DHT22;5370;50.132;8.626;2022-08-19T03:13:39;21.80;64.50
10644;DHT22;5370;50.132;8.626;2022-08-19T03:16:05;21.80;64.60
10644;DHT22;5370;50.132;8.626;2022-08-19T03:18:31;21.70;64.70
10644;DHT22;5370;50.132;8.626;2022-08-19T03:20:56;21.70;64.90
10644;DHT22;5370;50.132;8.626;2022-08-19T03:23:23;21.60;65.00
10644;DHT22;5370;50.132;8.626;2022-08-19T03:25:50;21.60;65.00
10644;DHT22;5370;50.132;8.626;2022-08-19T03:28:16;21.60;65.10
10644;DHT22;5370;50.132;8.626;2022-08-19T03:30:53;21.60;65.20
10644;DHT22;5370;50.132;8.626;2022-08-19T03:33:21;21.50;65.20
10644;DHT22;5370;50.132;8.626;2022-08-19T03:35:47;21.50;65.30
10644;DHT22;5370;50.132;8.626;2022-08-19T03:38:13;21.40;65.40
10644;DHT22;5370;50.132;8.626;2022-08-19T03:40:38;21.40;65.50
10644;DHT22;5370;50.132;8.626;2022-08-19T03:43:04;21.40;65.80
10644;DHT22;5370;50.132;8.626;2022-08-19T03:45:31;21.30;65.90
10644;DHT22;5370;50.132;8.626;2022-08-19T03:47:56;21.30;66.20
10644;DHT22;5370;50.132;8.626;2022-08-19T03:50:22;21.20;66.30
10644;DHT22;5370;50.132;8.626;2022-08-19T03:52:51;21.20;66.60
10644;DHT22;5370;50.132;8.626;2022-08-19T03:55:18;21.20;66.70
10644;DHT22;5370;50.132;8.626;2022-08-19T03:57:43;21.10;67.00
10644;DHT22;5370;50.132;8.626;2022-08-19T04:00:10;21.10;67.20
10644;DHT22;5370;50.132;8.626;2022-08-19T04:02:36;21.10;67.20
10644;DHT22;5370;50.132;8.626;2022-08-19T04:05:02;21.10;67.30
10644;DHT22;5370;50.132;8.626;2022-08-19T04:07:28;21.10;67.50
10644;DHT22;5370;50.132;8.626;2022-08-19T04:09:53;21.10;67.30
10644;DHT22;5370;50.132;8.626;2022-08-19T04:12:19;21.10;67.40
10644;DHT22;5370;50.132;8.626;2022-08-19T04:14:45;21.10;67.50
10644;DHT22;5370;50.132;8.626;2022-08-19T04:17:11;21.10;67.60
10644;DHT22;5370;50.132;8.626;2022-08-19T04:19:38;21.10;67.80
10644;DHT22;5370;50.132;8.626;2022-08-19T04:22:04;21.10;68.10
10644;DHT22;5370;50.132;8.626;2022-08-19T04:24:30;21.00;68.10
10644;DHT22;5370;50.132;8.626;2022-08-19T04:26:55;21.00;68.20
10644;DHT22;5370;50.132;8.626;2022-08-19T04:29:24;21.00;68.20
10644;DHT22;5370;50.132;8.626;2022-08-19T04:31:51;21.00;68.40
10644;DHT22;5370;50.132;8.626;2022-08-19T04:34:18;21.00;68.50
10644;DHT22;5370;50.132;8.626;2022-08-19T04:36:47;21.00;68.70
10644;DHT22;5370;50.132;8.626;2022-08-19T04:39:17;21.00;68.70
10644;DHT22;5370;50.132;8.626;2022-08-19T04:41:44;21.00;68.90
10644;DHT22;5370;50.132;8.626;2022-08-19T04:44:32;21.00;68.90
10644;DHT22;5370;50.132;8.626;2022-08-19T04:46:59;21.00;68.90
10644;DHT22;5370;50.132;8.626;2022-08-19T04:49:25;21.00;68.90
10644;DHT22;5370;50.132;8.626;2022-08-19T04:51:52;21.00;68.90
10644;DHT22;5370;50.132;8.626;2022-08-19T04:54:20;21.10;69.00
10644;DHT22;5370;50.132;8.626;2022-08-19T04:56:51;21.10;69.00
10644;DHT22;5370;50.132;8.626;2022-08-19T04:59:18;21.10;68.90
10644;DHT22;5370;50.132;8.626;2022-08-19T05:01:45;21.20;68.90
10644;DHT22;5370;50.132;8.626;2022-08-19T05:04:14;21.30;68.80
10644;DHT22;5370;50.132;8.626;2022-08-19T05:06:40;21.30;68.60
10644;DHT22;5370;50.132;8.626;2022-08-19T05:09:06;21.40;68.60
10644;DHT22;5370;50.132;8.626;2022-08-19T05:11:34;21.50;68.60
10644;DHT22;5370;50.132;8.626;2022-08-19T05:14:05;21.50;68.30
10644;DHT22;5370;50.132;8.626;2022-08-19T05:16:31;21.60;68.10
10644;DHT22;5370;50.132;8.626;2022-08-19T05:18:56;21.80;68.00
10644;DHT22;5370;50.132;8.626;2022-08-19T05:21:42;21.90;67.60
10644;DHT22;5370;50.132;8.626;2022-08-19T05:24:27;22.00;67.20
10644;DHT22;5370;50.132;8.626;2022-08-19T05:26:54;22.20;66.80
10644;DHT22;5370;50.132;8.626;2022-08-19T05:29:22;22.30;66.30
10644;DHT22;5370;50.132;8.626;2022-08-19T05:31:49;22.40;65.90
10644;DHT22;5370;50.132;8.626;2022-08-19T05:34:16;22.60;65.50
10644;DHT22;5370;50.132;8.626;2022-08-19T05:36:43;22.70;65.00
10644;DHT22;5370;50.132;8.626;2022-08-19T05:39:19;22.90;64.50
10644;DHT22;5370;50.132;8.626;2022-08-19T05:41:47;23.00;63.90
10644;DHT22;5370;50.132;8.626;2022-08-19T05:44:14;23.20;63.50
10644;DHT22;5370;50.132;8.626;2022-08-19T05:46:43;23.40;63.00
10644;DHT22;5370;50.132;8.626;2022-08-19T05:49:09;23.50;62.10
10644;DHT22;5370;50.132;8.626;2022-08-19T05:51:36;23.70;61.80
10644;DHT22;5370;50.132;8.626;2022-08-19T05:54:04;23.80;61.30
10644;DHT22;5370;50.132;8.626;2022-08-19T05:56:31;24.00;60.70
10644;DHT22;5370;50.132;8.626;2022-08-19T05:58:58;24.10;60.20
10644;DHT22;5370;50.132;8.626;2022-08-19T06:01:25;24.20;59.70
10644;DHT22;5370;50.132;8.626;2022-08-19T06:03:51;24.30;59.10
10644;DHT22;5370;50.132;8.626;2022-08-19T06:06:17;24.40;58.80
10644;DHT22;5370;50.132;8.626;2022-08-19T06:08:43;24.50;58.40
10644;DHT22;5370;50.132;8.626;2022-08-19T06:11:34;24.60;58.20
10644;DHT22;5370;50.132;8.626;2022-08-19T06:14:04;24.70;57.60
10644;DHT22;5370;50.132;8.626;2022-08-19T06:16:30;24.90;57.30
10644;DHT22;5370;50.132;8.626;2022-08-19T06:18:59;25.00;56.80
10644;DHT22;5370;50.132;8.626;2022-08-19T06:21:27;25.20;56.30
10644;DHT22;5370;50.132;8.626;2022-08-19T06:23:54;25.40;56.00
10644;DHT22;5370;50.132;8.626;2022-08-19T06:26:20;25.40;55.00
10644;DHT22;5370;50.132;8.626;2022-08-19T06:28:47;25.40;54.40
10644;DHT22;5370;50.132;8.626;2022-08-19T06:31:15;25.40;54.60
10644;DHT22;5370;50.132;8.626;2022-08-19T06:33:42;25.40;54.70
10644;DHT22;5370;50.132;8.626;2022-08-19T06:36:15;25.40;54.50
10644;DHT22;5370;50.132;8.626;2022-08-19T06:38:41;25.50;54.60
10644;DHT22;5370;50.132;8.626;2022-08-19T06:41:07;25.50;54.50
10644;DHT22;5370;50.132;8.626;2022-08-19T06:43:33;25.60;53.90
10644;DHT22;5370;50.132;8.626;2022-08-19T06:45:58;25.50;53.80
10644;DHT22;5370;50.132;8.626;2022-08-19T06:48:24;25.50;53.80
10644;DHT22;5370;50.132;8.626;2022-08-19T06:50:50;25.50;53.50
10644;DHT22;5370;50.132;8.626;2022-08-19T06:53:17;25.60;53.30
10644;DHT22;5370;50.132;8.626;2022-08-19T06:55:44;25.50;53.10
10644;DHT22;5370;50.132;8.626;2022-08-19T06:58:10;25.60;53.20
10644;DHT22;5370;50.132;8.626;2022-08-19T07:00:37;25.60;52.90
10644;DHT22;5370;50.132;8.626;2022-08-19T07:03:02;25.90;53.00
10644;DHT22;5370;50.132;8.626;2022-08-19T07:05:28;26.50;52.40
10644;DHT22;5370;50.132;8.626;2022-08-19T07:07:54;27.30;51.20
10644;DHT22;5370;50.132;8.626;2022-08-19T07:10:19;28.20;49.60
10644;DHT22;5370;50.132;8.626;2022-08-19T07:12:45;29.10;47.80
10644;DHT22;5370;50.132;8.626;2022-08-19T07:15:11;30.00;45.30
10644;DHT22;5370;50.132;8.626;2022-08-19T07:17:38;30.70;44.50
10644;DHT22;5370;50.132;8.626;2022-08-19T07:20:06;31.50;42.90
10644;DHT22;5370;50.132;8.626;2022-08-19T07:22:33;32.00;40.70
10644;DHT22;5370;50.132;8.626;2022-08-19T07:25:00;32.30;39.60
10644;DHT22;5370;50.132;8.626;2022-08-19T07:27:25;32.40;39.30
10644;DHT22;5370;50.132;8.626;2022-08-19T07:29:54;32.40;39.00
10644;DHT22;5370;50.132;8.626;2022-08-19T07:32:19;32.50;38.30
10644;DHT22;5370;50.132;8.626;2022-08-19T07:34:45;32.60;38.50
10644;DHT22;5370;50.132;8.626;2022-08-19T07:37:11;32.80;37.90
10644;DHT22;5370;50.132;8.626;2022-08-19T07:39:37;32.80;37.30
10644;DHT22;5370;50.132;8.626;2022-08-19T07:42:08;32.90;37.50
10644;DHT22;5370;50.132;8.626;2022-08-19T07:44:34;33.20;36.90
10644;DHT22;5370;50.132;8.626;2022-08-19T07:47:00;33.40;36.60
10644;DHT22;5370;50.132;8.626;2022-08-19T07:49:27;33.00;35.80
10644;DHT22;5370;50.132;8.626;2022-08-19T07:51:56;32.50;36.30
10644;DHT22;5370;50.132;8.626;2022-08-19T07:54:23;32.50;36.90
10644;DHT22;5370;50.132;8.626;2022-08-19T07:56:49;32.50;36.70
10644;DHT22;5370;50.132;8.626;2022-08-19T07:59:17;32.80;36.60
10644;DHT22;5370;50.132;8.626;2022-08-19T08:01:44;32.70;36.10
10644;DHT22;5370;50.132;8.626;2022-08-19T08:04:10;32.30;36.60
10644;DHT22;5370;50.132;8.626;2022-08-19T08:06:54;31.90;37.30
10644;DHT22;5370;50.132;8.626;2022-08-19T08:09:41;31.40;38.00
10644;DHT22;5370;50.132;8.626;2022-08-19T08:12:12;31.20;38.40
10644;DHT22;5370;50.132;8.626;2022-08-19T08:14:42;31.40;38.50
10644;DHT22;5370;50.132;8.626;2022-08-19T08:17:09;31.70;38.10
10644;DHT22;5370;50.132;8.626;2022-08-19T08:19:36;32.50;37.40
10644;DHT22;5370;50.132;8.626;2022-08-19T08:22:02;33.20;36.20
10644;DHT22;5370;50.132;8.626;2022-08-19T08:24:30;34.00;35.00
10644;DHT22;5370;50.132;8.626;2022-08-19T08:26:57;34.30;33.90
10644;DHT22;5370;50.132;8.626;2022-08-19T08:29:24;34.70;33.80
10644;DHT22;5370;50.132;8.626;2022-08-19T08:31:51;35.40;33.30
10644;DHT22;5370;50.132;8.626;2022-08-19T08:34:16;36.20;32.40
10644;DHT22;5370;50.132;8.626;2022-08-19T08:36:45;36.50;31.30
10644;DHT22;5370;50.132;8.626;2022-08-19T08:39:17;36.50;30.50
10644;DHT22;5370;50.132;8.626;2022-08-19T08:42:14;36.10;30.70
10644;DHT22;5370;50.132;8.626;2022-08-19T08:44:58;36.10;31.10
10644;DHT22;5370;50.132;8.626;2022-08-19T08:47:25;36.20;31.50
10644;DHT22;5370;50.132;8.626;2022-08-19T08:49:56;35.90;31.00
10644;DHT22;5370;50.132;8.626;2022-08-19T08:52:28;35.50;31.40
10644;DHT22;5370;50.132;8.626;2022-08-19T08:54:57;34.80;31.90
10644;DHT22;5370;50.132;8.626;2022-08-19T09:00:15;33.30;33.90
10644;DHT22;5370;50.132;8.626;2022-08-19T09:02:43;32.70;35.00
10644;DHT22;5370;50.132;8.626;2022-08-19T09:05:10;32.30;35.60
10644;DHT22;5370;50.132;8.626;2022-08-19T09:07:55;31.90;36.20
10644;DHT22;5370;50.132;8.626;2022-08-19T09:10:32;31.40;37.10
10644;DHT22;5370;50.132;8.626;2022-08-19T09:13:04;30.90;37.50
10644;DHT22;5370;50.132;8.626;2022-08-19T09:15:38;30.50;38.20
10644;DHT22;5370;50.132;8.626;2022-08-19T09:18:05;30.10;38.60
10644;DHT22;5370;50.132;8.626;2022-08-19T09:20:31;29.90;38.90
10644;DHT22;5370;50.132;8.626;2022-08-19T09:22:57;29.70;39.00
10644;DHT22;5370;50.132;8.626;2022-08-19T09:25:24;29.40;39.60
10644;DHT22;5370;50.132;8.626;2022-08-19T09:27:51;29.40;40.10
10644;DHT22;5370;50.132;8.626;2022-08-19T09:30:21;29.50;40.40
10644;DHT22;5370;50.132;8.626;2022-08-19T09:32:48;29.50;40.30
10644;DHT22;5370;50.132;8.626;2022-08-19T09:35:14;29.50;40.00
10644;DHT22;5370;50.132;8.626;2022-08-19T09:37:41;29.40;39.90
10644;DHT22;5370;50.132;8.626;2022-08-19T09:40:08;29.40;40.20
10644;DHT22;5370;50.132;8.626;2022-08-19T09:42:34;29.30;40.40
10644;DHT22;5370;50.132;8.626;2022-08-19T09:45:00;29.40;40.70
10644;DHT22;5370;50.132;8.626;2022-08-19T09:47:25;29.40;40.80
10644;DHT22;5370;50.132;8.626;2022-08-19T09:49:51;29.30;41.00
10644;DHT22;5370;50.132;8.626;2022-08-19T09:52:16;29.30;41.10
10644;DHT22;5370;50.132;8.626;2022-08-19T09:54:43;29.40;41.10
10644;DHT22;5370;50.132;8.626;2022-08-19T09:57:09;29.50;41.10
10644;DHT22;5370;50.132;8.626;2022-08-19T09:59:35;29.50;40.80
10644;DHT22;5370;50.132;8.626;2022-08-19T10:02:01;29.30;40.60
10644;DHT22;5370;50.132;8.626;2022-08-19T10:04:26;29.10;41.10
10644;DHT22;5370;50.132;8.626;2022-08-19T10:07:12;29.00;41.10
10644;DHT22;5370;50.132;8.626;2022-08-19T10:09:37;29.00;41.20
10644;DHT22;5370;50.132;8.626;2022-08-19T10:12:04;29.20;41.20
10644;DHT22;5370;50.132;8.626;2022-08-19T10:14:31;29.20;40.90
10644;DHT22;5370;50.132;8.626;2022-08-19T10:16:57;29.30;40.90
10644;DHT22;5370;50.132;8.626;2022-08-19T10:19:22;29.10;40.60
10644;DHT22;5370;50.132;8.626;2022-08-19T10:21:48;28.80;40.80
10644;DHT22;5370;50.132;8.626;2022-08-19T10:24:13;28.80;41.20
10644;DHT22;5370;50.132;8.626;2022-08-19T10:26:40;28.80;41.30
10644;DHT22;5370;50.132;8.626;2022-08-19T10:29:12;28.80;41.30
10644;DHT22;5370;50.132;8.626;2022-08-19T10:31:41;28.80;41.40
10644;DHT22;5370;50.132;8.626;2022-08-19T10:34:07;28.90;41.40
10644;DHT22;5370;50.132;8.626;2022-08-19T10:36:35;29.10;41.40
10644;DHT22;5370;50.132;8.626;2022-08-19T10:39:05;29.10;41.20
10644;DHT22;5370;50.132;8.626;2022-08-19T10:41:34;29.20;41.10
10644;DHT22;5370;50.132;8.626;2022-08-19T10:44:03;29.10;41.20
10644;DHT22;5370;50.132;8.626;2022-08-19T10:46:31;29.10;41.40
10644;DHT22;5370;50.132;8.626;2022-08-19T10:48:59;29.10;41.20
10644;DHT22;5370;50.132;8.626;2022-08-19T10:51:24;29.10;40.70
10644;DHT22;5370;50.132;8.626;2022-08-19T10:54:09;29.20;40.60
10644;DHT22;5370;50.132;8.626;2022-08-19T10:56:35;29.20;40.20
10644;DHT22;5370;50.132;8.626;2022-08-19T10:59:24;29.10;40.20
10644;DHT22;5370;50.132;8.626;2022-08-19T11:01:53;29.20;40.30
10644;DHT22;5370;50.132;8.626;2022-08-19T11:04:19;29.40;40.40
10644;DHT22;5370;50.132;8.626;2022-08-19T11:06:47;29.70;40.10
10644;DHT22;5370;50.132;8.626;2022-08-19T11:09:18;29.90;39.90
10644;DHT22;5370;50.132;8.626;2022-08-19T11:11:43;30.00;39.00
10644;DHT22;5370;50.132;8.626;2022-08-19T11:14:11;29.80;39.10
10644;DHT22;5370;50.132;8.626;2022-08-19T11:16:38;29.70;39.60
10644;DHT22;5370;50.132;8.626;2022-08-19T11:19:08;29.60;39.30
10644;DHT22;5370;50.132;8.626;2022-08-19T11:21:37;29.50;39.30
10644;DHT22;5370;50.132;8.626;2022-08-19T11:24:07;29.40;39.20
10644;DHT22;5370;50.132;8.626;2022-08-19T11:26:34;29.60;39.50
10644;DHT22;5370;50.132;8.626;2022-08-19T11:29:00;29.90;39.50
10644;DHT22;5370;50.132;8.626;2022-08-19T11:31:30;30.10;38.90
10644;DHT22;5370;50.132;8.626;2022-08-19T11:33:57;30.20;38.80
10644;DHT22;5370;50.132;8.626;2022-08-19T11:36:25;30.30;38.60
10644;DHT22;5370;50.132;8.626;2022-08-19T11:38:51;30.40;37.90
10644;DHT22;5370;50.132;8.626;2022-08-19T11:41:21;30.30;37.40
10644;DHT22;5370;50.132;8.626;2022-08-19T11:43:48;30.10;37.20
10644;DHT22;5370;50.132;8.626;2022-08-19T11:46:15;30.10;37.60
10644;DHT22;5370;50.132;8.626;2022-08-19T11:48:41;30.10;37.90
10644;DHT22;5370;50.132;8.626;2022-08-19T11:51:10;30.20;37.90
10644;DHT22;5370;50.132;8.626;2022-08-19T11:53:36;30.30;37.80
10644;DHT22;5370;50.132;8.626;2022-08-19T11:56:03;30.40;37.50
10644;DHT22;5370;50.132;8.626;2022-08-19T11:58:29;30.30;37.30
10644;DHT22;5370;50.132;8.626;2022-08-19T12:00:55;30.20;37.20
10644;DHT22;5370;50.132;8.626;2022-08-19T12:03:21;30.10;37.40
10644;DHT22;5370;50.132;8.626;2022-08-19T12:05:47;30.10;37.40
10644;DHT22;5370;50.132;8.626;2022-08-19T12:08:13;30.20;37.00
10644;DHT22;5370;50.132;8.626;2022-08-19T12:10:39;30.30;36.90
10644;DHT22;5370;50.132;8.626;2022-08-19T12:13:08;30.30;36.40
10644;DHT22;5370;50.132;8.626;2022-08-19T12:15:39;30.30;36.20
10644;DHT22;5370;50.132;8.626;2022-08-19T12:18:07;30.30;36.10
10644;DHT22;5370;50.132;8.626;2022-08-19T12:20:38;30.40;36.10
10644;DHT22;5370;50.132;8.626;2022-08-19T12:23:06;30.30;35.40
10644;DHT22;5370;50.132;8.626;2022-08-19T12:25:34;30.20;34.90
10644;DHT22;5370;50.132;8.626;2022-08-19T12:28:00;30.10;34.80
10644;DHT22;5370;50.132;8.626;2022-08-19T12:30:25;29.90;35.00
10644;DHT22;5370;50.132;8.626;2022-08-19T12:32:51;29.80;35.30
10644;DHT22;5370;50.132;8.626;2022-08-19T12:35:17;29.70;35.60
10644;DHT22;5370;50.132;8.626;2022-08-19T12:37:46;29.70;35.90
10644;DHT22;5370;50.132;8.626;2022-08-19T12:40:12;29.80;36.00
10644;DHT22;5370;50.132;8.626;2022-08-19T12:42:39;29.80;35.70
10644;DHT22;5370;50.132;8.626;2022-08-19T12:45:11;29.90;35.10
10644;DHT22;5370;50.132;8.626;2022-08-19T12:47:38;29.90;34.20
10644;DHT22;5370;50.132;8.626;2022-08-19T12:50:04;30.00;34.10
10644;DHT22;5370;50.132;8.626;2022-08-19T12:52:31;30.30;34.10
10644;DHT22;5370;50.132;8.626;2022-08-19T12:54:57;30.60;34.10
10644;DHT22;5370;50.132;8.626;2022-08-19T12:57:25;30.90;33.90
10644;DHT22;5370;50.132;8.626;2022-08-19T12:59:54;31.20;33.60
10644;DHT22;5370;50.132;8.626;2022-08-19T13:02:20;31.50;33.30
10644;DHT22;5370;50.132;8.626;2022-08-19T13:04:46;31.60;33.10
10644;DHT22;5370;50.132;8.626;2022-08-19T13:07:12;31.60;32.70
10644;DHT22;5370;50.132;8.626;2022-08-19T13:09:38;31.50;32.70
10644;DHT22;5370;50.132;8.626;2022-08-19T13:12:06;31.40;32.50
10644;DHT22;5370;50.132;8.626;2022-08-19T13:14:34;31.20;32.20
10644;DHT22;5370;50.132;8.626;2022-08-19T13:17:00;31.10;32.10
10644;DHT22;5370;50.132;8.626;2022-08-19T13:19:26;31.10;32.00
10644;DHT22;5370;50.132;8.626;2022-08-19T13:21:52;31.10;32.00
10644;DHT22;5370;50.132;8.626;2022-08-19T13:24:19;31.20;32.20
10644;DHT22;5370;50.132;8.626;2022-08-19T13:26:44;31.40;32.20
10644;DHT22;5370;50.132;8.626;2022-08-19T13:29:10;31.60;32.00
10644;DHT22;5370;50.132;8.626;2022-08-19T13:31:54;31.70;31.70
10644;DHT22;5370;50.132;8.626;2022-08-19T13:34:38;31.80;31.70
10644;DHT22;5370;50.132;8.626;2022-08-19T13:37:04;32.00;31.60
10644;DHT22;5370;50.132;8.626;2022-08-19T13:39:32;32.00;31.50
10644;DHT22;5370;50.132;8.626;2022-08-19T13:41:59;32.10;31.60
10644;DHT22;5370;50.132;8.626;2022-08-19T13:44:26;32.10;31.50
10644;DHT22;5370;50.132;8.626;2022-08-19T13:46:55;32.20;31.50
10644;DHT22;5370;50.132;8.626;2022-08-19T13:49:24;32.30;31.40
10644;DHT22;5370;50.132;8.626;2022-08-19T13:51:50;32.30;31.30
10644;DHT22;5370;50.132;8.626;2022-08-19T13:54:15;32.30;31.30
10644;DHT22;5370;50.132;8.626;2022-08-19T13:56:43;32.30;31.20
10644;DHT22;5370;50.132;8.626;2022-08-19T13:59:09;32.10;31.40
10644;DHT22;5370;50.132;8.626;2022-08-19T14:01:36;32.10;31.40
10644;DHT22;5370;50.132;8.626;2022-08-19T14:04:02;32.10;31.30
10644;DHT22;5370;50.132;8.626;2022-08-19T14:06:28;31.90;31.30
10644;DHT22;5370;50.132;8.626;2022-08-19T14:08:54;31.80;31.40
10644;DHT22;5370;50.132;8.626;2022-08-19T14:11:19;31.80;32.20
10644;DHT22;5370;50.132;8.626;2022-08-19T14:13:45;31.70;31.80
10644;DHT22;5370;50.132;8.626;2022-08-19T14:16:13;31.70;31.80
10644;DHT22;5370;50.132;8.626;2022-08-19T14:18:39;31.70;31.80
10644;DHT22;5370;50.132;8.626;2022-08-19T14:21:06;31.80;31.70
10644;DHT22;5370;50.132;8.626;2022-08-19T14:23:33;31.90;31.20
10644;DHT22;5370;50.132;8.626;2022-08-19T14:26:14;32.00;31.10
10644;DHT22;5370;50.132;8.626;2022-08-19T14:28:40;32.10;30.70
10644;DHT22;5370;50.132;8.626;2022-08-19T14:31:10;32.30;30.90
10644;DHT22;5370;50.132;8.626;2022-08-19T14:33:36;32.40;30.80
10644;DHT22;5370;50.132;8.626;2022-08-19T14:36:03;32.60;30.50
10644;DHT22;5370;50.132;8.626;2022-08-19T14:38:28;32.60;30.00
10644;DHT22;5370;50.132;8.626;2022-08-19T14:41:18;32.60;30.00
10644;DHT22;5370;50.132;8.626;2022-08-19T14:43:46;32.40;30.00
10644;DHT22;5370;50.132;8.626;2022-08-19T14:46:14;32.40;30.00
10644;DHT22;5370;50.132;8.626;2022-08-19T14:48:41;32.30;30.00
10644;DHT22;5370;50.132;8.626;2022-08-19T14:51:06;32.30;29.90
10644;DHT22;5370;50.132;8.626;2022-08-19T14:53:32;32.20;30.00
10644;DHT22;5370;50.132;8.626;2022-08-19T14:55:59;32.20;30.50
10644;DHT22;5370;50.132;8.626;2022-08-19T14:58:26;32.20;30.00
10644;DHT22;5370;50.132;8.626;2022-08-19T15:00:51;32.10;29.80
10644;DHT22;5370;50.132;8.626;2022-08-19T15:03:17;31.80;29.90
10644;DHT22;5370;50.132;8.626;2022-08-19T15:05:42;31.80;30.20
10644;DHT22;5370;50.132;8.626;2022-08-19T15:08:08;31.80;30.20
10644;DHT22;5370;50.132;8.626;2022-08-19T15:10:34;31.90;30.00
10644;DHT22;5370;50.132;8.626;2022-08-19T15:12:59;32.00;29.90
10644;DHT22;5370;50.132;8.626;2022-08-19T15:15:25;32.00;29.70
10644;DHT22;5370;50.132;8.626;2022-08-19T15:17:51;31.90;29.70
10644;DHT22;5370;50.132;8.626;2022-08-19T15:20:19;31.80;29.80
10644;DHT22;5370;50.132;8.626;2022-08-19T15:22:45;31.80;30.00
10644;DHT22;5370;50.132;8.626;2022-08-19T15:25:13;31.60;30.10
10644;DHT22;5370;50.132;8.626;2022-08-19T15:27:39;31.50;30.10
10644;DHT22;5370;50.132;8.626;2022-08-19T15:30:07;31.40;30.20
10644;DHT22;5370;50.132;8.626;2022-08-19T15:32:34;31.30;30.20
10644;DHT22;5370;50.132;8.626;2022-08-19T15:35:00;31.10;30.20
10644;DHT22;5370;50.132;8.626;2022-08-19T15:37:27;31.00;30.20
10644;DHT22;5370;50.132;8.626;2022-08-19T15:39:53;31.00;30.30
10644;DHT22;5370;50.132;8.626;2022-08-19T15:42:18;31.00;30.20
10644;DHT22;5370;50.132;8.626;2022-08-19T15:44:46;31.00;30.00
10644;DHT22;5370;50.132;8.626;2022-08-19T15:47:12;31.10;30.00
10644;DHT22;5370;50.132;8.626;2022-08-19T15:49:37;31.10;30.10
10644;DHT22;5370;50.132;8.626;2022-08-19T15:52:03;31.10;30.10